sensor_id;sensor_type;location;lat;lon;timestamp;P1;durP1;ratioP1;P2;durP2;ratioP2
27313;SDS011;14800;48.174;9.798;2024-02-26T00:02:17;3.05;;;2.67;;
27313;SDS011;14800;48.174;9.798;2024-02-26T00:04:43;3.83;;;2.72;;
27313;SDS011;14800;48.174;9.798;2024-02-26T00:07:09;3.47;;;2.80;;
27313;SDS011;14800;48.174;9.798;2024-02-26T00:09:35;5.55;;;2.53;;
27313;SDS011;14800;48.174;9.798;2024-02-26T00:12:02;2.97;;;2.67;;
27313;SDS011;14800;48.174;9.798;2024-02-26T00:14:29;3.45;;;2.60;;
27313;SDS011;14800;48.174;9.798;2024-02-26T00:16:55;3.28;;;2.47;;
27313;SDS011;14800;48.174;9.798;2024-02-26T00:19:20;3.28;;;2.83;;
27313;SDS011;14800;48.174;9.798;2024-02-26T00:21:46;3.95;;;3.17;;
27313;SDS011;14800;48.174;9.798;2024-02-26T00:24:12;4.18;;;3.40;;
27313;SDS011;14800;48.174;9.798;2024-02-26T00:26:37;5.43;;;4.00;;
27313;SDS011;14800;48.174;9.798;2024-02-26T00:29:03;5.38;;;3.88;;
27313;SDS011;14800;48.174;9.798;2024-02-26T00:31:29;3.42;;;2.83;;
27313;SDS011;14800;48.174;9.798;2024-02-26T00:33:54;3.88;;;3.33;;
27313;SDS011;14800;48.174;9.798;2024-02-26T00:36:20;4.10;;;3.40;;
27313;SDS011;14800;48.174;9.798;2024-02-26T00:38:46;4.70;;;3.30;;
27313;SDS011;14800;48.174;9.798;2024-02-26T00:41:15;4.70;;;3.15;;
27313;SDS011;14800;48.174;9.798;2024-02-26T00:43:43;4.72;;;3.22;;
27313;SDS011;14800;48.174;9.798;2024-02-26T00:46:08;5.25;;;3.50;;
27313;SDS011;14800;48.174;9.798;2024-02-26T00:48:34;9.95;;;5.15;;
27313;SDS011;14800;48.174;9.798;2024-02-26T00:51:00;6.93;;;4.63;;
27313;SDS011;14800;48.174;9.798;2024-02-26T00:53:25;5.97;;;3.95;;
27313;SDS011;14800;48.174;9.798;2024-02-26T00:55:51;5.15;;;3.60;;
27313;SDS011;14800;48.174;9.798;2024-02-26T00:58:17;5.10;;;3.90;;
27313;SDS011;14800;48.174;9.798;2024-02-26T01:00:43;4.82;;;3.72;;
27313;SDS011;14800;48.174;9.798;2024-02-26T01:03:09;4.80;;;3.92;;
27313;SDS011;14800;48.174;9.798;2024-02-26T01:05:35;4.88;;;3.58;;
27313;SDS011;14800;48.174;9.798;2024-02-26T01:08:01;4.57;;;3.22;;
27313;SDS011;14800;48.174;9.798;2024-02-26T01:10:27;5.03;;;3.42;;
27313;SDS011;14800;48.174;9.798;2024-02-26T01:12:53;4.00;;;3.60;;
27313;SDS011;14800;48.174;9.798;2024-02-26T01:15:18;4.20;;;3.35;;
27313;SDS011;14800;48.174;9.798;2024-02-26T01:17:47;3.97;;;3.42;;
27313;SDS011;14800;48.174;9.798;2024-02-26T01:20:12;4.57;;;3.40;;
27313;SDS011;14800;48.174;9.798;2024-02-26T01:22:38;4.03;;;3.28;;
27313;SDS011;14800;48.174;9.798;2024-02-26T01:25:05;4.97;;;3.70;;
27313;SDS011;14800;48.174;9.798;2024-02-26T01:27:32;4.28;;;3.53;;
27313;SDS011;14800;48.174;9.798;2024-02-26T01:29:58;4.18;;;3.50;;
27313;SDS011;14800;48.174;9.798;2024-02-26T01:32:23;4.50;;;3.22;;
27313;SDS011;14800;48.174;9.798;2024-02-26T01:34:49;4.30;;;3.63;;
27313;SDS011;14800;48.174;9.798;2024-02-26T01:37:14;4.95;;;3.83;;
27313;SDS011;14800;48.174;9.798;2024-02-26T01:39:40;5.68;;;3.55;;
27313;SDS011;14800;48.174;9.798;2024-02-26T01:42:06;5.55;;;4.00;;
27313;SDS011;14800;48.174;9.798;2024-02-26T01:44:32;3.92;;;3.53;;
27313;SDS011;14800;48.174;9.798;2024-02-26T01:46:58;5.90;;;4.00;;
27313;SDS011;14800;48.174;9.798;2024-02-26T01:49:26;4.82;;;3.63;;
27313;SDS011;14800;48.174;9.798;2024-02-26T01:51:53;4.30;;;3.50;;
27313;SDS011;14800;48.174;9.798;2024-02-26T01:54:19;4.82;;;3.50;;
27313;SDS011;14800;48.174;9.798;2024-02-26T01:56:45;5.15;;;3.70;;
27313;SDS011;14800;48.174;9.798;2024-02-26T01:59:11;4.85;;;3.90;;
27313;SDS011;14800;48.174;9.798;2024-02-26T02:01:37;4.28;;;3.85;;
27313;SDS011;14800;48.174;9.798;2024-02-26T02:04:05;4.43;;;4.00;;
27313;SDS011;14800;48.174;9.798;2024-02-26T02:06:31;4.63;;;3.95;;
27313;SDS011;14800;48.174;9.798;2024-02-26T02:08:56;4.95;;;4.03;;
27313;SDS011;14800;48.174;9.798;2024-02-26T02:11:22;6.35;;;4.20;;
27313;SDS011;14800;48.174;9.798;2024-02-26T02:13:48;6.22;;;4.25;;
27313;SDS011;14800;48.174;9.798;2024-02-26T02:16:13;4.68;;;4.25;;
27313;SDS011;14800;48.174;9.798;2024-02-26T02:18:39;5.05;;;4.20;;
27313;SDS011;14800;48.174;9.798;2024-02-26T02:21:05;4.63;;;4.05;;
27313;SDS011;14800;48.174;9.798;2024-02-26T02:23:30;8.57;;;5.10;;
27313;SDS011;14800;48.174;9.798;2024-02-26T02:25:56;4.90;;;4.30;;
27313;SDS011;14800;48.174;9.798;2024-02-26T02:28:23;6.65;;;4.82;;
27313;SDS011;14800;48.174;9.798;2024-02-26T02:30:51;5.15;;;4.65;;
27313;SDS011;14800;48.174;9.798;2024-02-26T02:33:17;6.30;;;4.75;;
27313;SDS011;14800;48.174;9.798;2024-02-26T02:35:42;6.72;;;5.30;;
27313;SDS011;14800;48.174;9.798;2024-02-26T02:38:08;7.38;;;5.07;;
27313;SDS011;14800;48.174;9.798;2024-02-26T02:40:34;6.72;;;5.07;;
27313;SDS011;14800;48.174;9.798;2024-02-26T02:43:00;6.38;;;5.15;;
27313;SDS011;14800;48.174;9.798;2024-02-26T02:45:27;6.18;;;5.05;;
27313;SDS011;14800;48.174;9.798;2024-02-26T02:47:53;7.63;;;4.95;;
27313;SDS011;14800;48.174;9.798;2024-02-26T02:50:18;6.45;;;5.22;;
27313;SDS011;14800;48.174;9.798;2024-02-26T02:52:44;5.78;;;5.13;;
27313;SDS011;14800;48.174;9.798;2024-02-26T02:55:09;6.43;;;5.07;;
27313;SDS011;14800;48.174;9.798;2024-02-26T02:57:35;6.88;;;5.18;;
27313;SDS011;14800;48.174;9.798;2024-02-26T03:00:06;6.72;;;5.38;;
27313;SDS011;14800;48.174;9.798;2024-02-26T03:02:33;6.53;;;5.70;;
27313;SDS011;14800;48.174;9.798;2024-02-26T03:05:00;7.13;;;5.47;;
27313;SDS011;14800;48.174;9.798;2024-02-26T03:07:27;6.32;;;5.25;;
27313;SDS011;14800;48.174;9.798;2024-02-26T03:09:52;7.30;;;5.95;;
27313;SDS011;14800;48.174;9.798;2024-02-26T03:12:18;7.20;;;5.53;;
27313;SDS011;14800;48.174;9.798;2024-02-26T03:14:44;9.18;;;6.38;;
27313;SDS011;14800;48.174;9.798;2024-02-26T03:17:09;6.55;;;5.43;;
27313;SDS011;14800;48.174;9.798;2024-02-26T03:19:35;6.88;;;5.57;;
27313;SDS011;14800;48.174;9.798;2024-02-26T03:22:00;8.00;;;5.90;;
27313;SDS011;14800;48.174;9.798;2024-02-26T03:24:27;7.20;;;5.45;;
27313;SDS011;14800;48.174;9.798;2024-02-26T03:26:53;6.90;;;5.78;;
27313;SDS011;14800;48.174;9.798;2024-02-26T03:29:18;7.35;;;5.90;;
27313;SDS011;14800;48.174;9.798;2024-02-26T03:31:44;7.00;;;6.18;;
27313;SDS011;14800;48.174;9.798;2024-02-26T03:34:10;7.38;;;5.82;;
27313;SDS011;14800;48.174;9.798;2024-02-26T03:36:37;7.07;;;5.47;;
27313;SDS011;14800;48.174;9.798;2024-02-26T03:39:03;7.43;;;5.88;;
27313;SDS011;14800;48.174;9.798;2024-02-26T03:41:32;9.15;;;5.90;;
27313;SDS011;14800;48.174;9.798;2024-02-26T03:43:58;5.82;;;5.22;;
27313;SDS011;14800;48.174;9.798;2024-02-26T03:46:24;7.47;;;5.95;;
27313;SDS011;14800;48.174;9.798;2024-02-26T03:48:49;9.30;;;6.28;;
27313;SDS011;14800;48.174;9.798;2024-02-26T03:51:15;7.63;;;6.10;;
27313;SDS011;14800;48.174;9.798;2024-02-26T03:53:40;7.68;;;6.00;;
27313;SDS011;14800;48.174;9.798;2024-02-26T03:56:06;7.78;;;5.85;;
27313;SDS011;14800;48.174;9.798;2024-02-26T03:58:32;8.20;;;6.15;;
27313;SDS011;14800;48.174;9.798;2024-02-26T04:00:58;7.40;;;5.97;;
27313;SDS011;14800;48.174;9.798;2024-02-26T04:03:25;7.32;;;5.95;;
27313;SDS011;14800;48.174;9.798;2024-02-26T04:05:50;6.50;;;5.82;;
27313;SDS011;14800;48.174;9.798;2024-02-26T04:08:16;7.03;;;5.65;;
27313;SDS011;14800;48.174;9.798;2024-02-26T04:10:42;8.27;;;5.93;;
27313;SDS011;14800;48.174;9.798;2024-02-26T04:13:07;7.93;;;6.40;;
27313;SDS011;14800;48.174;9.798;2024-02-26T04:15:33;8.23;;;6.20;;
27313;SDS011;14800;48.174;9.798;2024-02-26T04:17:59;9.10;;;6.65;;
27313;SDS011;14800;48.174;9.798;2024-02-26T04:20:25;8.13;;;6.50;;
27313;SDS011;14800;48.174;9.798;2024-02-26T04:22:51;8.07;;;6.55;;
27313;SDS011;14800;48.174;9.798;2024-02-26T04:25:16;9.70;;;7.15;;
27313;SDS011;14800;48.174;9.798;2024-02-26T04:27:42;7.65;;;6.68;;
27313;SDS011;14800;48.174;9.798;2024-02-26T04:30:08;10.82;;;8.05;;
27313;SDS011;14800;48.174;9.798;2024-02-26T04:32:34;9.10;;;7.28;;
27313;SDS011;14800;48.174;9.798;2024-02-26T04:35:00;13.27;;;10.30;;
27313;SDS011;14800;48.174;9.798;2024-02-26T04:37:27;13.38;;;10.40;;
27313;SDS011;14800;48.174;9.798;2024-02-26T04:39:59;13.30;;;10.68;;
27313;SDS011;14800;48.174;9.798;2024-02-26T04:42:26;13.98;;;11.55;;
27313;SDS011;14800;48.174;9.798;2024-02-26T04:44:51;15.15;;;11.65;;
27313;SDS011;14800;48.174;9.798;2024-02-26T04:47:17;13.35;;;10.35;;
27313;SDS011;14800;48.174;9.798;2024-02-26T04:49:42;16.38;;;10.68;;
27313;SDS011;14800;48.174;9.798;2024-02-26T04:52:08;14.98;;;11.60;;
27313;SDS011;14800;48.174;9.798;2024-02-26T04:54:34;15.25;;;11.25;;
27313;SDS011;14800;48.174;9.798;2024-02-26T04:56:59;12.73;;;9.95;;
27313;SDS011;14800;48.174;9.798;2024-02-26T04:59:25;12.77;;;9.90;;
27313;SDS011;14800;48.174;9.798;2024-02-26T05:01:50;12.52;;;9.10;;
27313;SDS011;14800;48.174;9.798;2024-02-26T05:04:17;9.02;;;7.15;;
27313;SDS011;14800;48.174;9.798;2024-02-26T05:06:43;11.07;;;7.43;;
27313;SDS011;14800;48.174;9.798;2024-02-26T05:09:09;9.10;;;6.50;;
27313;SDS011;14800;48.174;9.798;2024-02-26T05:11:34;9.50;;;6.95;;
27313;SDS011;14800;48.174;9.798;2024-02-26T05:14:00;11.75;;;7.53;;
27313;SDS011;14800;48.174;9.798;2024-02-26T05:16:26;10.90;;;7.53;;
27313;SDS011;14800;48.174;9.798;2024-02-26T05:18:52;14.65;;;9.32;;
27313;SDS011;14800;48.174;9.798;2024-02-26T05:21:18;14.00;;;8.90;;
27313;SDS011;14800;48.174;9.798;2024-02-26T05:23:43;12.50;;;7.70;;
27313;SDS011;14800;48.174;9.798;2024-02-26T05:26:10;11.95;;;7.88;;
27313;SDS011;14800;48.174;9.798;2024-02-26T05:28:35;9.27;;;7.10;;
27313;SDS011;14800;48.174;9.798;2024-02-26T05:31:04;10.40;;;7.63;;
27313;SDS011;14800;48.174;9.798;2024-02-26T05:33:30;9.15;;;6.78;;
27313;SDS011;14800;48.174;9.798;2024-02-26T05:35:55;9.55;;;7.07;;
27313;SDS011;14800;48.174;9.798;2024-02-26T05:38:21;9.00;;;6.93;;
27313;SDS011;14800;48.174;9.798;2024-02-26T05:40:46;11.93;;;8.15;;
27313;SDS011;14800;48.174;9.798;2024-02-26T05:43:12;10.65;;;7.90;;
27313;SDS011;14800;48.174;9.798;2024-02-26T05:45:40;9.23;;;7.30;;
27313;SDS011;14800;48.174;9.798;2024-02-26T05:48:06;12.45;;;8.13;;
27313;SDS011;14800;48.174;9.798;2024-02-26T05:50:32;12.25;;;8.15;;
27313;SDS011;14800;48.174;9.798;2024-02-26T05:52:57;11.23;;;7.82;;
27313;SDS011;14800;48.174;9.798;2024-02-26T05:55:23;11.20;;;7.97;;
27313;SDS011;14800;48.174;9.798;2024-02-26T05:57:48;10.52;;;7.78;;
27313;SDS011;14800;48.174;9.798;2024-02-26T06:00:14;10.13;;;7.65;;
27313;SDS011;14800;48.174;9.798;2024-02-26T06:02:40;10.80;;;7.60;;
27313;SDS011;14800;48.174;9.798;2024-02-26T06:05:06;10.50;;;7.18;;
27313;SDS011;14800;48.174;9.798;2024-02-26T06:07:33;10.73;;;7.22;;
27313;SDS011;14800;48.174;9.798;2024-02-26T06:09:59;10.00;;;7.43;;
27313;SDS011;14800;48.174;9.798;2024-02-26T06:12:25;27.40;;;18.02;;
27313;SDS011;14800;48.174;9.798;2024-02-26T06:14:53;15.75;;;11.77;;
27313;SDS011;14800;48.174;9.798;2024-02-26T06:17:19;11.55;;;8.63;;
27313;SDS011;14800;48.174;9.798;2024-02-26T06:19:45;10.63;;;7.72;;
27313;SDS011;14800;48.174;9.798;2024-02-26T06:22:10;10.57;;;8.23;;
27313;SDS011;14800;48.174;9.798;2024-02-26T06:24:36;9.10;;;7.28;;
27313;SDS011;14800;48.174;9.798;2024-02-26T06:27:02;9.50;;;7.47;;
27313;SDS011;14800;48.174;9.798;2024-02-26T06:29:28;10.10;;;7.00;;
27313;SDS011;14800;48.174;9.798;2024-02-26T06:31:53;14.90;;;9.80;;
27313;SDS011;14800;48.174;9.798;2024-02-26T06:34:19;13.00;;;9.10;;
27313;SDS011;14800;48.174;9.798;2024-02-26T06:36:45;13.60;;;8.80;;
27313;SDS011;14800;48.174;9.798;2024-02-26T06:39:11;12.63;;;9.45;;
27313;SDS011;14800;48.174;9.798;2024-02-26T06:41:37;13.95;;;8.88;;
27313;SDS011;14800;48.174;9.798;2024-02-26T06:44:04;12.40;;;8.45;;
27313;SDS011;14800;48.174;9.798;2024-02-26T06:46:30;14.60;;;8.40;;
27313;SDS011;14800;48.174;9.798;2024-02-26T06:48:55;13.68;;;8.77;;
27313;SDS011;14800;48.174;9.798;2024-02-26T06:51:21;13.52;;;9.32;;
27313;SDS011;14800;48.174;9.798;2024-02-26T06:53:47;15.20;;;9.77;;
27313;SDS011;14800;48.174;9.798;2024-02-26T06:56:14;15.88;;;10.02;;
27313;SDS011;14800;48.174;9.798;2024-02-26T06:58:39;14.35;;;10.02;;
27313;SDS011;14800;48.174;9.798;2024-02-26T07:01:05;15.75;;;10.15;;
27313;SDS011;14800;48.174;9.798;2024-02-26T07:03:33;17.10;;;9.50;;
27313;SDS011;14800;48.174;9.798;2024-02-26T07:05:58;15.07;;;10.65;;
27313;SDS011;14800;48.174;9.798;2024-02-26T07:08:24;12.93;;;9.70;;
27313;SDS011;14800;48.174;9.798;2024-02-26T07:10:50;14.45;;;10.05;;
27313;SDS011;14800;48.174;9.798;2024-02-26T07:13:15;14.80;;;10.30;;
27313;SDS011;14800;48.174;9.798;2024-02-26T07:15:41;14.40;;;9.85;;
27313;SDS011;14800;48.174;9.798;2024-02-26T07:18:06;15.77;;;10.15;;
27313;SDS011;14800;48.174;9.798;2024-02-26T07:20:32;14.45;;;9.85;;
27313;SDS011;14800;48.174;9.798;2024-02-26T07:22:58;17.05;;;11.00;;
27313;SDS011;14800;48.174;9.798;2024-02-26T07:25:23;16.38;;;10.05;;
27313;SDS011;14800;48.174;9.798;2024-02-26T07:27:49;16.35;;;10.48;;
27313;SDS011;14800;48.174;9.798;2024-02-26T07:30:15;14.20;;;10.30;;
27313;SDS011;14800;48.174;9.798;2024-02-26T07:32:42;15.63;;;10.85;;
27313;SDS011;14800;48.174;9.798;2024-02-26T07:35:08;14.50;;;10.18;;
27313;SDS011;14800;48.174;9.798;2024-02-26T07:37:33;14.25;;;10.68;;
27313;SDS011;14800;48.174;9.798;2024-02-26T07:39:59;15.15;;;11.00;;
27313;SDS011;14800;48.174;9.798;2024-02-26T07:42:25;15.75;;;10.85;;
27313;SDS011;14800;48.174;9.798;2024-02-26T07:44:51;15.05;;;11.15;;
27313;SDS011;14800;48.174;9.798;2024-02-26T07:47:17;15.27;;;10.20;;
27313;SDS011;14800;48.174;9.798;2024-02-26T07:49:43;15.15;;;10.77;;
27313;SDS011;14800;48.174;9.798;2024-02-26T07:52:09;13.48;;;10.10;;
27313;SDS011;14800;48.174;9.798;2024-02-26T07:54:35;14.75;;;10.57;;
27313;SDS011;14800;48.174;9.798;2024-02-26T07:57:01;14.60;;;10.30;;
27313;SDS011;14800;48.174;9.798;2024-02-26T07:59:28;14.10;;;10.18;;
27313;SDS011;14800;48.174;9.798;2024-02-26T08:01:54;14.68;;;10.23;;
27313;SDS011;14800;48.174;9.798;2024-02-26T08:04:19;12.60;;;9.55;;
27313;SDS011;14800;48.174;9.798;2024-02-26T08:06:45;14.77;;;10.02;;
27313;SDS011;14800;48.174;9.798;2024-02-26T08:09:11;12.90;;;9.40;;
27313;SDS011;14800;48.174;9.798;2024-02-26T08:11:37;15.32;;;10.10;;
27313;SDS011;14800;48.174;9.798;2024-02-26T08:14:03;14.07;;;10.00;;
27313;SDS011;14800;48.174;9.798;2024-02-26T08:16:29;13.52;;;9.82;;
27313;SDS011;14800;48.174;9.798;2024-02-26T08:18:55;17.13;;;10.13;;
27313;SDS011;14800;48.174;9.798;2024-02-26T08:21:20;15.05;;;10.82;;
27313;SDS011;14800;48.174;9.798;2024-02-26T08:23:46;19.65;;;10.75;;
27313;SDS011;14800;48.174;9.798;2024-02-26T08:26:11;19.02;;;10.60;;
27313;SDS011;14800;48.174;9.798;2024-02-26T08:28:37;17.45;;;11.35;;
27313;SDS011;14800;48.174;9.798;2024-02-26T08:31:03;14.73;;;9.98;;
27313;SDS011;14800;48.174;9.798;2024-02-26T08:33:28;15.02;;;10.02;;
27313;SDS011;14800;48.174;9.798;2024-02-26T08:35:55;15.98;;;10.60;;
27313;SDS011;14800;48.174;9.798;2024-02-26T08:38:21;15.68;;;10.68;;
27313;SDS011;14800;48.174;9.798;2024-02-26T08:40:47;19.42;;;11.23;;
27313;SDS011;14800;48.174;9.798;2024-02-26T08:43:13;16.58;;;10.68;;
27313;SDS011;14800;48.174;9.798;2024-02-26T08:45:39;14.60;;;10.38;;
27313;SDS011;14800;48.174;9.798;2024-02-26T08:48:04;15.15;;;10.55;;
27313;SDS011;14800;48.174;9.798;2024-02-26T08:50:30;14.68;;;9.73;;
27313;SDS011;14800;48.174;9.798;2024-02-26T08:52:56;16.50;;;10.25;;
27313;SDS011;14800;48.174;9.798;2024-02-26T08:55:22;16.25;;;10.15;;
27313;SDS011;14800;48.174;9.798;2024-02-26T08:57:47;14.57;;;10.30;;
27313;SDS011;14800;48.174;9.798;2024-02-26T09:00:13;12.90;;;9.63;;
27313;SDS011;14800;48.174;9.798;2024-02-26T09:02:41;14.15;;;9.60;;
27313;SDS011;14800;48.174;9.798;2024-02-26T09:05:09;14.80;;;9.70;;
27313;SDS011;14800;48.174;9.798;2024-02-26T09:07:35;13.27;;;9.48;;
27313;SDS011;14800;48.174;9.798;2024-02-26T09:10:01;14.82;;;10.10;;
27313;SDS011;14800;48.174;9.798;2024-02-26T09:12:27;18.02;;;9.93;;
27313;SDS011;14800;48.174;9.798;2024-02-26T09:14:52;15.18;;;10.23;;
27313;SDS011;14800;48.174;9.798;2024-02-26T09:17:18;14.50;;;10.02;;
27313;SDS011;14800;48.174;9.798;2024-02-26T09:19:43;14.63;;;10.05;;
27313;SDS011;14800;48.174;9.798;2024-02-26T09:22:09;13.20;;;9.60;;
27313;SDS011;14800;48.174;9.798;2024-02-26T09:24:35;14.52;;;9.57;;
27313;SDS011;14800;48.174;9.798;2024-02-26T09:27:01;16.17;;;10.27;;
27313;SDS011;14800;48.174;9.798;2024-02-26T09:29:27;15.75;;;10.30;;
27313;SDS011;14800;48.174;9.798;2024-02-26T09:31:52;15.13;;;9.02;;
27313;SDS011;14800;48.174;9.798;2024-02-26T09:34:18;12.93;;;9.25;;
27313;SDS011;14800;48.174;9.798;2024-02-26T09:36:43;11.25;;;8.55;;
27313;SDS011;14800;48.174;9.798;2024-02-26T09:39:09;13.50;;;9.60;;
27313;SDS011;14800;48.174;9.798;2024-02-26T09:41:36;14.35;;;9.32;;
27313;SDS011;14800;48.174;9.798;2024-02-26T09:44:03;13.88;;;8.95;;
27313;SDS011;14800;48.174;9.798;2024-02-26T09:46:30;13.52;;;9.77;;
27313;SDS011;14800;48.174;9.798;2024-02-26T09:48:56;14.88;;;10.10;;
27313;SDS011;14800;48.174;9.798;2024-02-26T09:51:25;14.45;;;10.00;;
27313;SDS011;14800;48.174;9.798;2024-02-26T09:53:53;14.02;;;9.57;;
27313;SDS011;14800;48.174;9.798;2024-02-26T09:56:21;15.43;;;10.43;;
27313;SDS011;14800;48.174;9.798;2024-02-26T09:58:47;13.45;;;9.57;;
27313;SDS011;14800;48.174;9.798;2024-02-26T10:01:18;13.68;;;10.20;;
27313;SDS011;14800;48.174;9.798;2024-02-26T10:03:46;16.85;;;10.70;;
27313;SDS011;14800;48.174;9.798;2024-02-26T10:06:16;17.15;;;11.02;;
27313;SDS011;14800;48.174;9.798;2024-02-26T10:08:42;17.50;;;10.65;;
27313;SDS011;14800;48.174;9.798;2024-02-26T10:11:09;13.68;;;10.25;;
27313;SDS011;14800;48.174;9.798;2024-02-26T10:13:35;13.93;;;10.32;;
27313;SDS011;14800;48.174;9.798;2024-02-26T10:16:01;15.43;;;10.57;;
27313;SDS011;14800;48.174;9.798;2024-02-26T10:18:44;15.73;;;10.13;;
27313;SDS011;14800;48.174;9.798;2024-02-26T10:21:15;17.58;;;10.00;;
27313;SDS011;14800;48.174;9.798;2024-02-26T10:23:45;12.82;;;9.52;;
27313;SDS011;14800;48.174;9.798;2024-02-26T10:26:12;15.05;;;9.95;;
27313;SDS011;14800;48.174;9.798;2024-02-26T10:28:39;13.60;;;9.40;;
27313;SDS011;14800;48.174;9.798;2024-02-26T10:31:05;12.48;;;9.07;;
27313;SDS011;14800;48.174;9.798;2024-02-26T10:33:34;14.65;;;9.20;;
27313;SDS011;14800;48.174;9.798;2024-02-26T10:36:01;13.30;;;9.13;;
27313;SDS011;14800;48.174;9.798;2024-02-26T10:38:30;13.50;;;9.27;;
27313;SDS011;14800;48.174;9.798;2024-02-26T10:40:58;16.27;;;9.10;;
27313;SDS011;14800;48.174;9.798;2024-02-26T10:43:25;14.38;;;9.27;;
27313;SDS011;14800;48.174;9.798;2024-02-26T10:45:50;16.23;;;9.18;;
27313;SDS011;14800;48.174;9.798;2024-02-26T10:48:16;15.52;;;9.77;;
27313;SDS011;14800;48.174;9.798;2024-02-26T10:50:43;14.55;;;9.68;;
27313;SDS011;14800;48.174;9.798;2024-02-26T10:53:16;12.40;;;9.05;;
27313;SDS011;14800;48.174;9.798;2024-02-26T10:55:47;15.88;;;10.25;;
27313;SDS011;14800;48.174;9.798;2024-02-26T10:58:17;12.77;;;9.35;;
27313;SDS011;14800;48.174;9.798;2024-02-26T11:00:43;13.75;;;9.02;;
27313;SDS011;14800;48.174;9.798;2024-02-26T11:03:12;11.85;;;8.98;;
27313;SDS011;14800;48.174;9.798;2024-02-26T11:05:41;12.88;;;9.00;;
27313;SDS011;14800;48.174;9.798;2024-02-26T11:08:07;13.82;;;9.57;;
27313;SDS011;14800;48.174;9.798;2024-02-26T11:10:34;14.30;;;9.80;;
27313;SDS011;14800;48.174;9.798;2024-02-26T11:13:02;14.65;;;9.30;;
27313;SDS011;14800;48.174;9.798;2024-02-26T11:15:30;13.65;;;9.35;;
27313;SDS011;14800;48.174;9.798;2024-02-26T11:17:58;12.93;;;9.23;;
27313;SDS011;14800;48.174;9.798;2024-02-26T11:20:24;14.32;;;10.15;;
27313;SDS011;14800;48.174;9.798;2024-02-26T11:22:53;13.93;;;10.40;;
27313;SDS011;14800;48.174;9.798;2024-02-26T11:25:18;16.23;;;10.95;;
27313;SDS011;14800;48.174;9.798;2024-02-26T11:27:45;16.23;;;11.30;;
27313;SDS011;14800;48.174;9.798;2024-02-26T11:30:18;16.02;;;10.63;;
27313;SDS011;14800;48.174;9.798;2024-02-26T11:32:44;17.23;;;10.80;;
27313;SDS011;14800;48.174;9.798;2024-02-26T11:35:13;16.45;;;10.25;;
27313;SDS011;14800;48.174;9.798;2024-02-26T11:37:41;16.73;;;9.98;;
27313;SDS011;14800;48.174;9.798;2024-02-26T11:40:17;14.20;;;9.40;;
27313;SDS011;14800;48.174;9.798;2024-02-26T11:42:44;11.95;;;9.02;;
27313;SDS011;14800;48.174;9.798;2024-02-26T11:48:03;14.18;;;10.77;;
27313;SDS011;14800;48.174;9.798;2024-02-26T11:50:34;14.55;;;10.77;;
27313;SDS011;14800;48.174;9.798;2024-02-26T11:58:42;15.30;;;10.85;;
27313;SDS011;14800;48.174;9.798;2024-02-26T12:04:19;11.80;;;9.05;;
27313;SDS011;14800;48.174;9.798;2024-02-26T12:06:55;12.10;;;9.23;;
27313;SDS011;14800;48.174;9.798;2024-02-26T12:12:04;10.30;;;8.10;;
27313;SDS011;14800;48.174;9.798;2024-02-26T12:14:40;10.75;;;7.93;;
27313;SDS011;14800;48.174;9.798;2024-02-26T12:17:20;10.15;;;7.95;;
27313;SDS011;14800;48.174;9.798;2024-02-26T12:19:48;11.15;;;8.20;;
27313;SDS011;14800;48.174;9.798;2024-02-26T12:22:13;14.27;;;10.70;;
27313;SDS011;14800;48.174;9.798;2024-02-26T12:24:40;10.75;;;8.43;;
27313;SDS011;14800;48.174;9.798;2024-02-26T12:27:07;11.68;;;8.30;;
27313;SDS011;14800;48.174;9.798;2024-02-26T12:29:32;12.55;;;7.75;;
27313;SDS011;14800;48.174;9.798;2024-02-26T12:31:58;10.93;;;8.15;;
27313;SDS011;14800;48.174;9.798;2024-02-26T12:34:23;12.50;;;7.68;;
27313;SDS011;14800;48.174;9.798;2024-02-26T12:36:49;10.25;;;7.47;;
27313;SDS011;14800;48.174;9.798;2024-02-26T12:39:16;10.75;;;8.07;;
27313;SDS011;14800;48.174;9.798;2024-02-26T12:41:41;8.48;;;7.03;;
27313;SDS011;14800;48.174;9.798;2024-02-26T12:44:14;9.13;;;7.00;;
27313;SDS011;14800;48.174;9.798;2024-02-26T12:46:42;9.65;;;7.38;;
27313;SDS011;14800;48.174;9.798;2024-02-26T12:49:08;9.63;;;7.50;;
27313;SDS011;14800;48.174;9.798;2024-02-26T12:51:39;11.25;;;7.90;;
27313;SDS011;14800;48.174;9.798;2024-02-26T12:54:06;10.50;;;7.38;;
27313;SDS011;14800;48.174;9.798;2024-02-26T12:56:33;9.93;;;7.40;;
27313;SDS011;14800;48.174;9.798;2024-02-26T12:58:59;10.35;;;7.68;;
27313;SDS011;14800;48.174;9.798;2024-02-26T13:01:25;10.20;;;8.27;;
27313;SDS011;14800;48.174;9.798;2024-02-26T13:03:51;15.43;;;8.68;;
27313;SDS011;14800;48.174;9.798;2024-02-26T13:06:18;11.90;;;8.38;;
27313;SDS011;14800;48.174;9.798;2024-02-26T13:08:47;10.93;;;8.32;;
27313;SDS011;14800;48.174;9.798;2024-02-26T13:11:14;11.25;;;7.57;;
27313;SDS011;14800;48.174;9.798;2024-02-26T13:13:40;9.68;;;7.25;;
27313;SDS011;14800;48.174;9.798;2024-02-26T13:16:06;11.15;;;7.57;;
27313;SDS011;14800;48.174;9.798;2024-02-26T13:18:39;9.90;;;7.53;;
27313;SDS011;14800;48.174;9.798;2024-02-26T13:21:11;11.23;;;7.13;;
27313;SDS011;14800;48.174;9.798;2024-02-26T13:23:40;9.18;;;7.20;;
27313;SDS011;14800;48.174;9.798;2024-02-26T13:26:06;11.18;;;7.30;;
27313;SDS011;14800;48.174;9.798;2024-02-26T13:28:33;9.95;;;7.28;;
27313;SDS011;14800;48.174;9.798;2024-02-26T13:30:59;8.77;;;7.00;;
27313;SDS011;14800;48.174;9.798;2024-02-26T13:33:26;12.20;;;7.63;;
27313;SDS011;14800;48.174;9.798;2024-02-26T13:35:54;9.75;;;7.10;;
27313;SDS011;14800;48.174;9.798;2024-02-26T13:38:20;9.90;;;7.63;;
27313;SDS011;14800;48.174;9.798;2024-02-26T13:40:46;10.77;;;7.65;;
27313;SDS011;14800;48.174;9.798;2024-02-26T13:43:13;8.52;;;6.88;;
27313;SDS011;14800;48.174;9.798;2024-02-26T13:45:38;9.10;;;7.28;;
27313;SDS011;14800;48.174;9.798;2024-02-26T13:48:05;9.93;;;6.80;;
27313;SDS011;14800;48.174;9.798;2024-02-26T13:50:32;8.45;;;6.53;;
27313;SDS011;14800;48.174;9.798;2024-02-26T13:52:58;8.32;;;6.90;;
27313;SDS011;14800;48.174;9.798;2024-02-26T13:55:27;11.15;;;6.72;;
27313;SDS011;14800;48.174;9.798;2024-02-26T13:57:55;8.27;;;6.47;;
27313;SDS011;14800;48.174;9.798;2024-02-26T14:00:22;8.73;;;6.85;;
27313;SDS011;14800;48.174;9.798;2024-02-26T14:02:48;10.65;;;7.13;;
27313;SDS011;14800;48.174;9.798;2024-02-26T14:05:13;7.82;;;5.95;;
27313;SDS011;14800;48.174;9.798;2024-02-26T14:07:39;8.50;;;7.03;;
27313;SDS011;14800;48.174;9.798;2024-02-26T14:10:06;11.40;;;7.15;;
27313;SDS011;14800;48.174;9.798;2024-02-26T14:12:32;10.93;;;8.05;;
27313;SDS011;14800;48.174;9.798;2024-02-26T14:14:57;19.17;;;10.52;;
27313;SDS011;14800;48.174;9.798;2024-02-26T14:17:25;11.82;;;7.88;;
27313;SDS011;14800;48.174;9.798;2024-02-26T14:19:51;9.18;;;6.97;;
27313;SDS011;14800;48.174;9.798;2024-02-26T14:22:17;9.52;;;6.97;;
27313;SDS011;14800;48.174;9.798;2024-02-26T14:24:42;10.70;;;6.75;;
27313;SDS011;14800;48.174;9.798;2024-02-26T14:27:08;8.70;;;6.40;;
27313;SDS011;14800;48.174;9.798;2024-02-26T14:29:37;10.18;;;6.53;;
27313;SDS011;14800;48.174;9.798;2024-02-26T14:32:05;8.93;;;6.80;;
27313;SDS011;14800;48.174;9.798;2024-02-26T14:34:30;10.20;;;6.85;;
27313;SDS011;14800;48.174;9.798;2024-02-26T14:36:56;8.20;;;6.78;;
27313;SDS011;14800;48.174;9.798;2024-02-26T14:39:21;10.10;;;6.88;;
27313;SDS011;14800;48.174;9.798;2024-02-26T14:41:48;8.77;;;6.97;;
27313;SDS011;14800;48.174;9.798;2024-02-26T14:44:14;10.25;;;6.75;;
27313;SDS011;14800;48.174;9.798;2024-02-26T14:46:39;9.43;;;6.75;;